Time;durP1;ratioP1;P1;durP2;ratioP2;P2;SDS_P1;SDS_P2;PMS_P1;PMS_P2;Temp;Humidity;BMP_temperature;BMP_pressure;BME280_temperature;BME280_humidity;BME280_pressure;Samples;Min_cycle;Max_cycle;Signal;HPM_P1;HPM_P2
2022/05/02 00:02:05;;;;;;;;;;;;;;;;;;5055647;28;28341;-88
2022/05/02 00:04:30;;;;;;;;;;;;;;;;;;5037258;28;28685;-88
2022/05/02 00:06:55;;;;;;;;;;;;;;;;;;5054805;28;29863;-88
2022/05/02 00:09:20;;;;;;;;;;;;;;;;;;5055101;28;28258;-88
2022/05/02 00:11:45;;;;;;;;;;;;;;;;;;5055458;28;28455;-88
2022/05/02 00:14:11;;;;;;;;;;;;;;;;;;5055179;28;28435;-88
2022/05/02 00:16:36;;;;;;;;;;;;;;;;;;5055267;28;29513;-88
2022/05/02 00:19:01;;;;;;;;;;;;;;;;;;5054890;28;28321;-88
2022/05/02 00:21:26;;;;;;;;;;;;;;;;;;5055253;28;28314;-89
2022/05/02 00:23:51;;;;;;;;;;;;;;;;;;5054829;28;28444;-88
2022/05/02 00:26:16;;;;;;;;;;;;;;;;;;5054935;28;29189;-88
2022/05/02 00:28:41;;;;;;;;;;;;;;;;;;5055036;28;28317;-88
2022/05/02 00:31:06;;;;;;;;;;;;;;;;;;5054737;28;28375;-89
2022/05/02 00:33:32;;;;;;;;;;;;;;;;;;5054998;28;28234;-88
2022/05/02 00:35:57;;;;;;;;;;;;;;;;;;5054766;28;28317;-88
2022/05/02 00:38:22;;;;;;;;;;;;;;;;;;5054862;28;28257;-88
2022/05/02 00:40:47;;;;;;;;;;;;;;;;;;5055188;28;28341;-88
2022/05/02 00:43:12;;;;;;;;;;;;;;;;;;5054841;28;28364;-88
2022/05/02 00:45:37;;;;;;;;;;;;;;;;;;5053353;28;28545;-88
2022/05/02 00:48:02;;;;;;;;;;;;;;;;;;5055173;28;28341;-88
2022/05/02 00:50:28;;;;;;;;;;;;;;;;;;5054882;28;28349;-88
2022/05/02 00:52:53;;;;;;;;;;;;;;;;;;5054909;28;28406;-89
2022/05/02 00:55:18;;;;;;;;;;;;;;;;;;5054265;28;28525;-89
2022/05/02 00:57:43;;;;;;;;;;;;;;;;;;5054904;28;28365;-88
2022/05/02 01:00:08;;;;;;;;;;;;;;;;;;5054793;28;28501;-89
2022/05/02 01:02:33;;;;;;;;;;;;;;;;;;5054756;28;28415;-88
2022/05/02 01:04:59;;;;;;;;;;;;;;;;;;5054630;28;29419;-89
2022/05/02 01:07:24;;;;;;;;;;;;;;;;;;5054511;28;28249;-88
2022/05/02 01:09:49;;;;;;;;;;;;;;;;;;5054830;28;28507;-88
2022/05/02 01:12:14;;;;;;;;;;;;;;;;;;5054687;28;28237;-89
2022/05/02 01:14:39;;;;;;;;;;;;;;;;;;5054782;28;28478;-88
2022/05/02 01:17:04;;;;;;;;;;;;;;;;;;5054171;28;28691;-88
2022/05/02 01:19:29;;;;;;;;;;;;;;;;;;5054117;28;28454;-88
2022/05/02 01:21:54;;;;;;;;;;;;;;;;;;5054700;28;28684;-88
2022/05/02 01:24:19;;;;;;;;;;;;;;;;;;5053927;28;28459;-87
2022/05/02 01:26:45;;;;;;;;;;;;;;;;;;5054433;28;28441;-88
2022/05/02 01:29:10;;;;;;;;;;;;;;;;;;5053884;28;28408;-89
2022/05/02 01:31:35;;;;;;;;;;;;;;;;;;5054449;28;28559;-88
2022/05/02 01:34:00;;;;;;;;;;;;;;;;;;5054383;28;28344;-88
2022/05/02 01:36:28;;;;;;;;;;;;;;;;;;5054040;28;28413;-87
2022/05/02 01:38:53;;;;;;;;;;;;;;;;;;5054338;28;28475;-88
2022/05/02 01:41:18;;;;;;;;;;;;;;;;;;5054539;28;28419;-88
2022/05/02 01:43:43;;;;;;;;;;;;;;;;;;5053733;28;28400;-87
2022/05/02 01:46:08;;;;;;;;;;;;;;;;;;5036184;28;28577;-88
2022/05/02 01:48:34;;;;;;;;;;;;;;;;;;5054098;28;28379;-88
2022/05/02 01:50:59;;;;;;;;;;;;;;;;;;5053877;28;28466;-87
2022/05/02 01:53:24;;;;;;;;;;;;;;;;;;5053889;28;29162;-88
2022/05/02 01:55:49;;;;;;;;;;;;;;;;;;5053929;28;28455;-87
2022/05/02 01:58:14;;;;;;;;;;;;;;;;;;5057501;28;28360;-88
2022/05/02 02:00:39;;;;;;;;;;;;;;;;;;5057711;28;28406;-88
2022/05/02 02:03:04;;;;;;;;;;;;;;;;;;5056875;28;29119;-87
2022/05/02 02:08:15;;;;;;;;;;;;;;;;;;5057111;28;28451;-87
2022/05/02 02:10:40;;;;;;;;;;;;;;;;;;5057235;28;28301;-88
2022/05/02 02:13:05;;;;;;;;;;;;;;;;;;5057071;28;28695;-88
2022/05/02 02:15:30;;;;;;;;;;;;;;;;;;5057377;28;28308;-88
2022/05/02 02:17:55;;;;;;;;;;;;;;;;;;5057205;28;28459;-87
2022/05/02 02:20:20;;;;;;;;;;;;;;;;;;5057019;28;28244;-88
2022/05/02 02:22:45;;;;;;;;;;;;;;;;;;5057362;28;29240;-88
2022/05/02 02:25:11;;;;;;;;;;;;;;;;;;5056708;28;28262;-87
2022/05/02 02:27:36;;;;;;;;;;;;;;;;;;5057273;28;28238;-88
2022/05/02 02:30:01;;;;;;;;;;;;;;;;;;5057289;28;28247;-88
2022/05/02 02:32:26;;;;;;;;;;;;;;;;;;5056340;28;28393;-87
2022/05/02 02:34:51;;;;;;;;;;;;;;;;;;5057147;28;28300;-88
2022/05/02 02:37:16;;;;;;;;;;;;;;;;;;5056776;28;28717;-88
2022/05/02 02:39:41;;;;;;;;;;;;;;;;;;5056941;28;28450;-87
2022/05/02 02:42:06;;;;;;;;;;;;;;;;;;5056981;28;29471;-87
2022/05/02 02:44:31;;;;;;;;;;;;;;;;;;5056456;28;28316;-87
2022/05/02 02:46:56;;;;;;;;;;;;;;;;;;5056835;28;28403;-86
2022/05/02 02:49:22;;;;;;;;;;;;;;;;;;5056697;28;28502;-87
2022/05/02 02:51:47;;;;;;;;;;;;;;;;;;5056817;28;29346;-88
2022/05/02 02:54:12;;;;;;;;;;;;;;;;;;5056505;28;28394;-88
2022/05/02 02:56:37;;;;;;;;;;;;;;;;;;5056308;28;28280;-88
2022/05/02 02:59:02;;;;;;;;;;;;;;;;;;5035138;28;35207;-87
2022/05/02 03:01:27;;;;;;;;;;;;;;;;;;5035963;28;28410;-87
2022/05/02 03:03:52;;;;;;;;;;;;;;;;;;5036831;28;28302;-85
2022/05/02 03:06:17;;;;;;;;;;;;;;;;;;5036180;28;28560;-85
2022/05/02 03:08:44;;;;;;;;;;;;;;;;;;5035532;28;28451;-86
2022/05/02 03:11:09;;;;;;;;;;;;;;;;;;5036136;28;28518;-88
2022/05/02 03:13:35;;;;;;;;;;;;;;;;;;5036462;28;28438;-88
2022/05/02 03:16:00;;;;;;;;;;;;;;;;;;5036280;28;28466;-88
2022/05/02 03:18:25;;;;;;;;;;;;;;;;;;5036471;28;28430;-87
2022/05/02 03:20:50;;;;;;;;;;;;;;;;;;5036048;28;28471;-87
2022/05/02 03:23:15;;;;;;;;;;;;;;;;;;5035986;28;28475;-86
2022/05/02 03:25:40;;;;;;;;;;;;;;;;;;5036253;28;28528;-87
2022/05/02 03:28:06;;;;;;;;;;;;;;;;;;5036240;28;28705;-86
2022/05/02 03:30:31;;;;;;;;;;;;;;;;;;5035839;28;29383;-87
2022/05/02 03:32:56;;;;;;;;;;;;;;;;;;5036015;28;28517;-85
2022/05/02 03:35:21;;;;;;;;;;;;;;;;;;5036247;28;28403;-87
2022/05/02 03:37:46;;;;;;;;;;;;;;;;;;5035845;28;28442;-88
2022/05/02 03:40:11;;;;;;;;;;;;;;;;;;5034156;28;29850;-87
2022/05/02 03:42:37;;;;;;;;;;;;;;;;;;5035934;28;28454;-88
2022/05/02 03:45:02;;;;;;;;;;;;;;;;;;5036049;28;28417;-87
2022/05/02 03:47:28;;;;;;;;;;;;;;;;;;5035911;28;28386;-86
2022/05/02 03:49:53;;;;;;;;;;;;;;;;;;5035396;28;28612;-87
2022/05/02 03:52:18;;;;;;;;;;;;;;;;;;5035450;28;28554;-87
2022/05/02 03:54:43;;;;;;;;;;;;;;;;;;5035494;28;28328;-87
2022/05/02 03:57:08;;;;;;;;;;;;;;;;;;5039678;28;28343;-87
2022/05/02 03:59:33;;;;;;;;;;;;;;;;;;5055198;28;29379;-87
2022/05/02 04:01:58;;;;;;;;;;;;;;;;;;5055127;28;28381;-87
2022/05/02 04:04:24;;;;;;;;;;;;;;;;;;5055890;28;28454;-88
2022/05/02 04:06:49;;;;;;;;;;;;;;;;;;5055531;28;28352;-88
2022/05/02 04:09:14;;;;;;;;;;;;;;;;;;5055613;28;29127;-88
2022/05/02 04:11:39;;;;;;;;;;;;;;;;;;5054732;28;28316;-88
2022/05/02 04:14:04;;;;;;;;;;;;;;;;;;5055352;28;28412;-87
2022/05/02 04:16:29;;;;;;;;;;;;;;;;;;5055906;28;28443;-87
2022/05/02 04:18:54;;;;;;;;;;;;;;;;;;5054941;28;28248;-87
2022/05/02 04:21:19;;;;;;;;;;;;;;;;;;5055653;28;28298;-88
2022/05/02 04:23:44;;;;;;;;;;;;;;;;;;5054911;28;28503;-88
2022/05/02 04:26:10;;;;;;;;;;;;;;;;;;5055426;28;28294;-87
2022/05/02 04:28:35;;;;;;;;;;;;;;;;;;5055480;28;33763;-88
2022/05/02 04:31:00;;;;;;;;;;;;;;;;;;5037017;28;28363;-87
2022/05/02 04:33:25;;;;;;;;;;;;;;;;;;5055383;28;28232;-87
2022/05/02 04:35:50;;;;;;;;;;;;;;;;;;5055093;28;28498;-86
2022/05/02 04:38:15;;;;;;;;;;;;;;;;;;5055113;28;28578;-87
2022/05/02 04:40:40;;;;;;;;;;;;;;;;;;5054628;28;28424;-87
2022/05/02 04:43:05;;;;;;;;;;;;;;;;;;5055037;28;28249;-88
2022/05/02 04:45:31;;;;;;;;;;;;;;;;;;5055400;28;28407;-87
2022/05/02 04:47:57;;;;;;;;;;;;;;;;;;5054929;28;28262;-88
2022/05/02 04:50:22;;;;;;;;;;;;;;;;;;5054804;28;28538;-88
2022/05/02 04:52:47;;;;;;;;;;;;;;;;;;5054699;28;28233;-88
2022/05/02 04:55:13;;;;;;;;;;;;;;;;;;5055116;28;28349;-82
2022/05/02 04:57:38;;;;;;;;;;;;;;;;;;5054517;28;28304;-88
2022/05/02 05:00:03;;;;;;;;;;;;;;;;;;5058000;28;28502;-94
2022/05/02 05:02:28;;;;;;;;;;;;;;;;;;5064169;28;28307;-83
2022/05/02 05:04:53;;;;;;;;;;;;;;;;;;5063744;28;28928;-96
2022/05/02 05:07:18;;;;;;;;;;;;;;;;;;5066048;28;29358;-95
2022/05/02 05:09:43;;;;;;;;;;;;;;;;;;5045088;28;28416;-94
2022/05/02 05:12:08;;;;;;;;;;;;;;;;;;5065315;28;27612;-95
2022/05/02 05:17:18;;;;;;;;;;;;;;;;;;5059430;28;28573;-93
2022/05/02 05:19:43;;;;;;;;;;;;;;;;;;5039043;28;27850;-95
2022/05/02 05:22:08;;;;;;;;;;;;;;;;;;5038779;28;27762;-94
2022/05/02 05:24:33;;;;;;;;;;;;;;;;;;5057039;28;28582;-95
2022/05/02 05:26:58;;;;;;;;;;;;;;;;;;5038217;28;29733;-95
2022/05/02 05:29:23;;;;;;;;;;;;;;;;;;5038613;28;28522;-95
2022/05/02 05:31:48;;;;;;;;;;;;;;;;;;5059819;28;27717;-95
2022/05/02 05:34:16;;;;;;;;;;;;;;;;;;5061302;28;28232;-93
2022/05/02 05:36:41;;;;;;;;;;;;;;;;;;5058272;28;29160;-93
2022/05/02 05:39:06;;;;;;;;;;;;;;;;;;5040102;28;28799;-93
2022/05/02 05:41:31;;;;;;;;;;;;;;;;;;5045558;28;27800;-93
2022/05/02 05:43:56;;;;;;;;;;;;;;;;;;5038922;28;27796;-95
2022/05/02 05:46:23;;;;;;;;;;;;;;;;;;5038778;28;28572;-92
2022/05/02 05:48:48;;;;;;;;;;;;;;;;;;5023961;28;28294;-93
2022/05/02 05:51:13;;;;;;;;;;;;;;;;;;5040910;28;27833;-94
2022/05/02 05:53:38;;;;;;;;;;;;;;;;;;5059446;28;28561;-93
2022/05/02 05:56:03;;;;;;;;;;;;;;;;;;5059047;28;28584;-93
2022/05/02 05:58:28;;;;;;;;;;;;;;;;;;5036517;28;27945;-93
2022/05/02 06:00:53;;;;;;;;;;;;;;;;;;5037966;28;27792;-95
2022/05/02 06:03:18;;;;;;;;;;;;;;;;;;5037979;28;28432;-93
2022/05/02 06:05:43;;;;;;;;;;;;;;;;;;5036019;28;29911;-92
2022/05/02 06:08:08;;;;;;;;;;;;;;;;;;5035580;28;28850;-92
2022/05/02 06:10:34;;;;;;;;;;;;;;;;;;5034968;28;28481;-87
2022/05/02 06:12:59;;;;;;;;;;;;;;;;;;5035836;28;28456;-93
2022/05/02 06:21:08;;;;;;;;;;;;;;;;;;4993550;28;28398;-87
2022/05/02 06:23:34;;;;;;;;;;;;;;;;;;4993742;28;28597;-85
2022/05/02 06:25:59;;;;;;;;;;;;;;;;;;4993664;28;29270;-86
2022/05/02 06:28:24;;;;;;;;;;;;;;;;;;4993923;28;28358;-86
2022/05/02 06:30:49;;;;;;;;;;;;;;;;;;4993737;28;28398;-86
2022/05/02 06:33:14;;;;;;;;;;;;;;;;;;4996908;28;28358;-86
2022/05/02 06:35:39;;;;;;;;;;;;;;;;;;4993722;28;28526;-85
2022/05/02 06:38:04;;;;;;;;;;;;;;;;;;4994027;28;28476;-84
2022/05/02 06:40:30;;;;;;;;;;;;;;;;;;4993629;28;28613;-84
2022/05/02 06:42:55;;;;;;;;;;;;;;;;;;4993610;28;27841;-84
2022/05/02 06:45:20;;;;;;;;;;;;;;;;;;4993274;28;28385;-85
2022/05/02 06:47:45;;;;;;;;;;;;;;;;;;4993266;28;28413;-85
2022/05/02 06:50:10;;;;;;;;;;;;;;;;;;4993555;28;28512;-91
2022/05/02 06:52:36;;;;;;;;;;;;;;;;;;4977389;28;28427;-85
2022/05/02 06:55:01;;;;;;;;;;;;;;;;;;5012558;28;29044;-85
2022/05/02 06:59:21;;;;;;;;;;;;;;;;;;5153230;27;28520;-85
2022/05/02 07:01:49;;;;;;;;;;;;;;;;;;5140584;27;27873;-85
2022/05/02 07:04:14;;;;;;;;;;;;;;;;;;5142445;27;28510;-85
2022/05/02 07:06:39;;;;;;;;;;;;;;;;;;5152515;27;28334;-83
2022/05/02 07:09:04;;;;;;;;;;;;;;;;;;5153015;27;28270;-84
2022/05/02 07:11:29;;;;;;;;;;;;;;;;;;5153676;27;28327;-84
2022/05/02 07:13:55;;;;;;;;;;;;;;;;;;5147174;27;28362;-84
2022/05/02 07:16:20;;;;;;;;;;;;;;;;;;5132609;27;28348;-84
2022/05/02 07:18:46;;;;;;;;;;;;;;;;;;5132783;27;28279;-83
2022/05/02 07:21:11;;;;;;;;;;;;;;;;;;5132015;27;28382;-83
2022/05/02 07:23:37;;;;;;;;;;;;;;;;;;5132964;27;27724;-83
2022/05/02 07:26:02;;;;;;;;;;;;;;;;;;5135775;27;28325;-88
2022/05/02 07:28:27;;;;;;;;;;;;;;;;;;5151086;27;29991;-87
2022/05/02 07:30:52;;;;;;;;;;;;;;;;;;5145722;27;28404;-88
2022/05/02 07:33:17;;;;;;;;;;;;;;;;;;5132721;27;28398;-88
2022/05/02 07:35:42;;;;;;;;;;;;;;;;;;5132715;27;28386;-87
2022/05/02 07:38:07;;;;;;;;;;;;;;;;;;5132352;27;28422;-87
2022/05/02 07:40:33;;;;;;;;;;;;;;;;;;5132656;27;28568;-89
2022/05/02 07:42:58;;;;;;;;;;;;;;;;;;5148712;27;28397;-86
2022/05/02 07:45:24;;;;;;;;;;;;;;;;;;5132738;27;28534;-87
2022/05/02 07:47:49;;;;;;;;;;;;;;;;;;5132444;27;28589;-85
2022/05/02 07:50:14;;;;;;;;;;;;;;;;;;5132361;27;28403;-86
2022/05/02 07:52:40;;;;;;;;;;;;;;;;;;5132418;27;28372;-85
2022/05/02 07:55:05;;;;;;;;;;;;;;;;;;5132174;27;28434;-85
2022/05/02 07:57:30;;;;;;;;;;;;;;;;;;5152691;27;28583;-85
2022/05/02 07:59:56;;;;;;;;;;;;;;;;;;5152680;27;28389;-86
2022/05/02 08:02:21;;;;;;;;;;;;;;;;;;5151767;27;28494;-87
2022/05/02 08:04:46;;;;;;;;;;;;;;;;;;5151799;27;28406;-86
2022/05/02 08:07:11;;;;;;;;;;;;;;;;;;5152413;27;28401;-89
2022/05/02 08:09:37;;;;;;;;;;;;;;;;;;5145046;27;28525;-87
2022/05/02 08:12:02;;;;;;;;;;;;;;;;;;5138438;27;28425;-85
2022/05/02 08:14:27;;;;;;;;;;;;;;;;;;5138795;27;28474;-86
2022/05/02 08:16:53;;;;;;;;;;;;;;;;;;5138621;27;29177;-86
2022/05/02 08:19:18;;;;;;;;;;;;;;;;;;5127481;27;28451;-86
2022/05/02 08:21:44;;;;;;;;;;;;;;;;;;5118157;27;28286;-87
2022/05/02 08:29:37;;;;;;;;;;;;;;;;;;5117629;27;28370;-87
2022/05/02 08:32:02;;;;;;;;;;;;;;;;;;5118166;27;28419;-87
2022/05/02 08:34:27;;;;;;;;;;;;;;;;;;5151529;27;28558;-86
2022/05/02 08:36:52;;;;;;;;;;;;;;;;;;5117248;27;29191;-86
2022/05/02 08:39:17;;;;;;;;;;;;;;;;;;5117658;27;28288;-85
2022/05/02 08:41:43;;;;;;;;;;;;;;;;;;5118181;27;28293;-86
2022/05/02 08:44:08;;;;;;;;;;;;;;;;;;5117777;27;28391;-84
2022/05/02 08:46:33;;;;;;;;;;;;;;;;;;5118182;27;28516;-83
2022/05/02 08:51:42;;;;;;;;;;;;;;;;;;5117674;27;28445;-85
2022/05/02 08:54:07;;;;;;;;;;;;;;;;;;5117357;27;28541;-84
2022/05/02 08:56:32;;;;;;;;;;;;;;;;;;5117316;27;29656;-85
2022/05/02 08:58:58;;;;;;;;;;;;;;;;;;5117004;27;28335;-85
2022/05/02 09:01:23;;;;;;;;;;;;;;;;;;5156125;27;28377;-86
2022/05/02 09:03:48;;;;;;;;;;;;;;;;;;5129498;27;28355;-87
2022/05/02 09:06:13;;;;;;;;;;;;;;;;;;5116840;27;29459;-86
2022/05/02 09:08:38;;;;;;;;;;;;;;;;;;5123074;27;28300;-86
2022/05/02 09:11:04;;;;;;;;;;;;;;;;;;5137654;27;28469;-84
2022/05/02 09:13:29;;;;;;;;;;;;;;;;;;5132388;27;28475;-83
2022/05/02 09:15:57;;;;;;;;;;;;;;;;;;5117045;27;29408;-85
2022/05/02 09:18:22;;;;;;;;;;;;;;;;;;5119829;27;28564;-82
2022/05/02 09:20:47;;;;;;;;;;;;;;;;;;5122629;27;28500;-86
2022/05/02 09:23:12;;;;;;;;;;;;;;;;;;5128509;27;28495;-86
2022/05/02 09:25:37;;;;;;;;;;;;;;;;;;5117408;27;29542;-90
2022/05/02 09:28:02;;;;;;;;;;;;;;;;;;5123983;27;29283;-86
2022/05/02 09:30:27;;;;;;;;;;;;;;;;;;5119861;27;28482;-82
2022/05/02 09:32:52;;;;;;;;;;;;;;;;;;5116757;27;28386;-86
2022/05/02 09:35:18;;;;;;;;;;;;;;;;;;5132801;27;29651;-86
2022/05/02 09:37:44;;;;;;;;;;;;;;;;;;5129207;27;27996;-88
2022/05/02 09:40:09;;;;;;;;;;;;;;;;;;5145788;27;28475;-83
2022/05/02 09:42:35;;;;;;;;;;;;;;;;;;5136538;27;27945;-87
2022/05/02 09:50:27;;;;;;;;;;;;;;;;;;5132068;27;28457;-84
2022/05/02 09:52:52;;;;;;;;;;;;;;;;;;5125117;27;28488;-85
2022/05/02 09:58:03;;;;;;;;;;;;;;;;;;5117461;27;28692;-88
2022/05/02 10:03:12;;;;;;;;;;;;;;;;;;5118766;27;28759;-86
2022/05/02 10:05:38;;;;;;;;;;;;;;;;;;5117117;27;28364;-87
2022/05/02 10:08:06;;;;;;;;;;;;;;;;;;5129499;27;28615;-94
2022/05/02 10:10:31;;;;;;;;;;;;;;;;;;5116752;27;28307;-84
2022/05/02 10:12:56;;;;;;;;;;;;;;;;;;5135069;27;28404;-84
2022/05/02 10:15:21;;;;;;;;;;;;;;;;;;5127124;27;28597;-84
2022/05/02 10:17:46;;;;;;;;;;;;;;;;;;5128950;27;28444;-83
2022/05/02 10:20:11;;;;;;;;;;;;;;;;;;5130177;27;28402;-83
2022/05/02 10:22:36;;;;;;;;;;;;;;;;;;5131229;27;28496;-83
2022/05/02 10:25:04;;;;;;;;;;;;;;;;;;5136997;27;28319;-83
2022/05/02 10:27:30;;;;;;;;;;;;;;;;;;5134723;27;28396;-83
2022/05/02 10:29:55;;;;;;;;;;;;;;;;;;5116495;27;28270;-83
2022/05/02 10:32:20;;;;;;;;;;;;;;;;;;5116613;27;28321;-83
2022/05/02 10:34:45;;;;;;;;;;;;;;;;;;5116321;27;28691;-84
2022/05/02 10:37:10;;;;;;;;;;;;;;;;;;5116900;27;28324;-84
2022/05/02 10:39:38;;;;;;;;;;;;;;;;;;5116341;27;28309;-84
2022/05/02 10:42:03;;;;;;;;;;;;;;;;;;5127703;27;28600;-84
2022/05/02 10:44:28;;;;;;;;;;;;;;;;;;5122403;27;28598;-84
2022/05/02 10:46:53;;;;;;;;;;;;;;;;;;5115873;27;28438;-84
2022/05/02 10:49:18;;;;;;;;;;;;;;;;;;5116341;27;28320;-84
2022/05/02 10:51:44;;;;;;;;;;;;;;;;;;5116313;27;28360;-84
2022/05/02 10:54:09;;;;;;;;;;;;;;;;;;5120525;27;28438;-84
2022/05/02 10:56:35;;;;;;;;;;;;;;;;;;5135813;27;28404;-84
2022/05/02 10:59:00;;;;;;;;;;;;;;;;;;5136425;27;28334;-84
2022/05/02 11:01:25;;;;;;;;;;;;;;;;;;5136290;27;28435;-84
2022/05/02 11:03:50;;;;;;;;;;;;;;;;;;5133158;27;28393;-84
2022/05/02 11:06:16;;;;;;;;;;;;;;;;;;5115800;27;28381;-84
2022/05/02 11:08:42;;;;;;;;;;;;;;;;;;5116317;27;28752;-84
2022/05/02 11:11:07;;;;;;;;;;;;;;;;;;5115620;27;28236;-84
2022/05/02 11:13:32;;;;;;;;;;;;;;;;;;5119381;27;28556;-93
2022/05/02 11:15:57;;;;;;;;;;;;;;;;;;5137991;27;29578;-86
2022/05/02 11:21:06;;;;;;;;;;;;;;;;;;5132668;27;28807;-87
2022/05/02 11:23:31;;;;;;;;;;;;;;;;;;5127953;27;28504;-87
2022/05/02 11:25:56;;;;;;;;;;;;;;;;;;5135743;27;28413;-87
2022/05/02 11:28:21;;;;;;;;;;;;;;;;;;5135773;27;28389;-85
2022/05/02 11:30:47;;;;;;;;;;;;;;;;;;5135952;27;28432;-85
2022/05/02 11:33:12;;;;;;;;;;;;;;;;;;5129506;27;28453;-85
2022/05/02 11:35:37;;;;;;;;;;;;;;;;;;5115093;27;28519;-85
2022/05/02 11:38:02;;;;;;;;;;;;;;;;;;5122362;27;28400;-85
2022/05/02 11:40:28;;;;;;;;;;;;;;;;;;5135806;27;28149;-85
2022/05/02 11:42:53;;;;;;;;;;;;;;;;;;5135509;27;28467;-85
2022/05/02 11:45:18;;;;;;;;;;;;;;;;;;5137855;27;28557;-87
2022/05/02 11:47:43;;;;;;;;;;;;;;;;;;5137699;27;28462;-87
2022/05/02 11:50:10;;;;;;;;;;;;;;;;;;5136884;27;28292;-88
2022/05/02 11:52:38;;;;;;;;;;;;;;;;;;5118264;27;28468;-88
2022/05/02 11:55:03;;;;;;;;;;;;;;;;;;5118355;27;28422;-87
2022/05/02 11:57:29;;;;;;;;;;;;;;;;;;5118221;27;27832;-87
2022/05/02 11:59:54;;;;;;;;;;;;;;;;;;5125900;27;28363;-84
2022/05/02 12:02:19;;;;;;;;;;;;;;;;;;5138660;27;28463;-85
2022/05/02 12:04:44;;;;;;;;;;;;;;;;;;5134156;27;28399;-85
2022/05/02 12:07:10;;;;;;;;;;;;;;;;;;5130062;27;28456;-84
2022/05/02 12:09:36;;;;;;;;;;;;;;;;;;5138747;27;28440;-87
2022/05/02 12:12:01;;;;;;;;;;;;;;;;;;5129896;27;29464;-87
2022/05/02 12:14:26;;;;;;;;;;;;;;;;;;5136705;27;28460;-88
2022/05/02 12:16:51;;;;;;;;;;;;;;;;;;5138226;27;28420;-88
2022/05/02 12:19:16;;;;;;;;;;;;;;;;;;5137488;27;28561;-87
2022/05/02 12:21:41;;;;;;;;;;;;;;;;;;5137732;27;28452;-87
2022/05/02 12:24:06;;;;;;;;;;;;;;;;;;5138637;27;28490;-87
2022/05/02 12:26:32;;;;;;;;;;;;;;;;;;5138512;27;28877;-87
2022/05/02 12:28:58;;;;;;;;;;;;;;;;;;5128936;27;28309;-87
2022/05/02 12:31:23;;;;;;;;;;;;;;;;;;5133157;27;28510;-82
2022/05/02 12:33:50;;;;;;;;;;;;;;;;;;5136989;27;28698;-84
2022/05/02 12:36:16;;;;;;;;;;;;;;;;;;5136938;27;27837;-83
2022/05/02 12:38:41;;;;;;;;;;;;;;;;;;5136915;27;28751;-85
2022/05/02 12:41:06;;;;;;;;;;;;;;;;;;5136728;27;29348;-83
2022/05/02 12:43:31;;;;;;;;;;;;;;;;;;5138028;27;28430;-83
2022/05/02 12:45:56;;;;;;;;;;;;;;;;;;5132003;27;28426;-83
2022/05/02 12:48:22;;;;;;;;;;;;;;;;;;5122645;27;28461;-83
2022/05/02 12:50:47;;;;;;;;;;;;;;;;;;5123947;27;28546;-84
2022/05/02 12:53:12;;;;;;;;;;;;;;;;;;5119983;27;29878;-83
2022/05/02 12:55:38;;;;;;;;;;;;;;;;;;5119265;27;28561;-84
2022/05/02 13:00:46;;;;;;;;;;;;;;;;;;5117113;27;28401;-83
2022/05/02 13:03:12;;;;;;;;;;;;;;;;;;5117571;27;28523;-83
2022/05/02 13:05:37;;;;;;;;;;;;;;;;;;5117304;27;28452;-83
2022/05/02 13:08:02;;;;;;;;;;;;;;;;;;5132825;27;28505;-83
2022/05/02 13:10:27;;;;;;;;;;;;;;;;;;5137651;27;29325;-83
2022/05/02 13:12:52;;;;;;;;;;;;;;;;;;5131228;27;29543;-83
2022/05/02 13:15:17;;;;;;;;;;;;;;;;;;5117184;27;28330;-83
2022/05/02 13:17:45;;;;;;;;;;;;;;;;;;5117238;27;28555;-83
2022/05/02 13:20:10;;;;;;;;;;;;;;;;;;5117008;27;28472;-83
2022/05/02 13:22:35;;;;;;;;;;;;;;;;;;5134799;27;29265;-83
2022/05/02 13:25:02;;;;;;;;;;;;;;;;;;5136788;27;27822;-83
2022/05/02 13:27:27;;;;;;;;;;;;;;;;;;5136157;27;28438;-84
2022/05/02 13:29:52;;;;;;;;;;;;;;;;;;5132583;27;28479;-83
2022/05/02 13:32:17;;;;;;;;;;;;;;;;;;5135457;27;29353;-83
2022/05/02 13:34:42;;;;;;;;;;;;;;;;;;5124113;27;28875;-83
2022/05/02 13:37:09;;;;;;;;;;;;;;;;;;5135655;27;28649;-83
2022/05/02 13:39:34;;;;;;;;;;;;;;;;;;5137190;27;29653;-83
2022/05/02 13:41:59;;;;;;;;;;;;;;;;;;5137294;27;28437;-83
2022/05/02 13:44:27;;;;;;;;;;;;;;;;;;5137311;27;28388;-83
2022/05/02 13:46:54;;;;;;;;;;;;;;;;;;5137250;27;28481;-83
2022/05/02 13:49:19;;;;;;;;;;;;;;;;;;5135720;27;28646;-83
2022/05/02 13:51:44;;;;;;;;;;;;;;;;;;5135730;27;28498;-83
2022/05/02 13:54:09;;;;;;;;;;;;;;;;;;5137092;27;28443;-83
2022/05/02 13:56:37;;;;;;;;;;;;;;;;;;5135310;27;28476;-83
2022/05/02 13:59:02;;;;;;;;;;;;;;;;;;5136612;27;29585;-83
2022/05/02 14:01:29;;;;;;;;;;;;;;;;;;5136368;27;29649;-83
2022/05/02 14:03:59;;;;;;;;;;;;;;;;;;5120830;27;28857;-83
2022/05/02 14:06:33;;;;;;;;;;;;;;;;;;5136488;27;28515;-83
2022/05/02 14:09:00;;;;;;;;;;;;;;;;;;5136136;27;29578;-83
2022/05/02 14:11:25;;;;;;;;;;;;;;;;;;5138465;27;28431;-83
2022/05/02 14:13:53;;;;;;;;;;;;;;;;;;5145790;27;28517;-83
2022/05/02 14:16:18;;;;;;;;;;;;;;;;;;5155799;27;28519;-83
2022/05/02 14:18:43;;;;;;;;;;;;;;;;;;5136267;27;28994;-83
2022/05/02 14:21:08;;;;;;;;;;;;;;;;;;5140478;27;28498;-83
2022/05/02 14:23:34;;;;;;;;;;;;;;;;;;5157694;27;28266;-83
2022/05/02 14:25:59;;;;;;;;;;;;;;;;;;5157530;27;28483;-83
2022/05/02 14:28:24;;;;;;;;;;;;;;;;;;5156061;27;29176;-83
2022/05/02 14:30:49;;;;;;;;;;;;;;;;;;5137328;27;28405;-83
2022/05/02 14:33:14;;;;;;;;;;;;;;;;;;5136174;27;27788;-83
2022/05/02 14:35:41;;;;;;;;;;;;;;;;;;5136756;27;28506;-86
2022/05/02 14:38:07;;;;;;;;;;;;;;;;;;5136265;27;28533;-82
2022/05/02 14:40:32;;;;;;;;;;;;;;;;;;5134945;27;28510;-82
2022/05/02 14:42:57;;;;;;;;;;;;;;;;;;5120203;27;28965;-83
2022/05/02 14:45:22;;;;;;;;;;;;;;;;;;5132607;27;28501;-82
2022/05/02 14:47:49;;;;;;;;;;;;;;;;;;5127295;27;28411;-82
2022/05/02 14:50:14;;;;;;;;;;;;;;;;;;5115458;27;28164;-84
2022/05/02 14:52:40;;;;;;;;;;;;;;;;;;5141054;27;28441;-83
2022/05/02 14:55:05;;;;;;;;;;;;;;;;;;5132452;27;28398;-83
2022/05/02 14:57:30;;;;;;;;;;;;;;;;;;5121078;27;28399;-83
2022/05/02 14:59:55;;;;;;;;;;;;;;;;;;5115480;27;28412;-83
2022/05/02 15:02:20;;;;;;;;;;;;;;;;;;5132182;27;28620;-82
2022/05/02 15:04:46;;;;;;;;;;;;;;;;;;5126366;27;28406;-82
2022/05/02 15:07:11;;;;;;;;;;;;;;;;;;5134254;27;28558;-82
2022/05/02 15:12:20;;;;;;;;;;;;;;;;;;5133805;27;28430;-82
2022/05/02 15:14:46;;;;;;;;;;;;;;;;;;5131696;27;28625;-82
2022/05/02 15:17:11;;;;;;;;;;;;;;;;;;5114949;27;28460;-81
2022/05/02 15:19:37;;;;;;;;;;;;;;;;;;5119383;27;28313;-82
2022/05/02 15:22:02;;;;;;;;;;;;;;;;;;5138923;27;27856;-83
2022/05/02 15:24:27;;;;;;;;;;;;;;;;;;5139039;27;28549;-83
2022/05/02 15:26:52;;;;;;;;;;;;;;;;;;5138964;27;29405;-83
2022/05/02 15:37:29;;;;;;;;;;;;;;;;;;5135322;27;28650;-83
2022/05/02 15:39:54;;;;;;;;;;;;;;;;;;5132619;27;28456;-82
2022/05/02 15:42:19;;;;;;;;;;;;;;;;;;5126211;27;28816;-82
2022/05/02 15:44:45;;;;;;;;;;;;;;;;;;5139359;27;28433;-83
2022/05/02 15:47:11;;;;;;;;;;;;;;;;;;5138824;27;28492;-83
2022/05/02 15:49:37;;;;;;;;;;;;;;;;;;5139292;27;28235;-88
2022/05/02 15:52:02;;;;;;;;;;;;;;;;;;5139231;27;28305;-91
2022/05/02 15:54:27;;;;;;;;;;;;;;;;;;5138741;27;28320;-87
2022/05/02 15:56:52;;;;;;;;;;;;;;;;;;5138790;27;28524;-88
2022/05/02 15:59:17;;;;;;;;;;;;;;;;;;5125190;27;28436;-87
2022/05/02 16:01:42;;;;;;;;;;;;;;;;;;5118676;27;28468;-88
2022/05/02 16:04:07;;;;;;;;;;;;;;;;;;5128681;27;28570;-85
2022/05/02 16:06:35;;;;;;;;;;;;;;;;;;5141262;27;28676;-90
2022/05/02 16:11:44;;;;;;;;;;;;;;;;;;5128773;27;28393;-85
2022/05/02 16:14:09;;;;;;;;;;;;;;;;;;5122839;27;28334;-85
2022/05/02 16:16:34;;;;;;;;;;;;;;;;;;5128972;27;28392;-84
2022/05/02 16:18:59;;;;;;;;;;;;;;;;;;5136067;27;28490;-87
2022/05/02 16:21:24;;;;;;;;;;;;;;;;;;5135804;27;28345;-85
2022/05/02 16:23:51;;;;;;;;;;;;;;;;;;5122395;27;28533;-85
2022/05/02 16:26:16;;;;;;;;;;;;;;;;;;5137028;27;28651;-90
2022/05/02 16:28:41;;;;;;;;;;;;;;;;;;5137361;27;28371;-87
2022/05/02 16:31:07;;;;;;;;;;;;;;;;;;5138012;27;28436;-88
2022/05/02 16:33:32;;;;;;;;;;;;;;;;;;5134164;27;28418;-89
2022/05/02 16:35:58;;;;;;;;;;;;;;;;;;5130461;27;28417;-88
2022/05/02 16:38:23;;;;;;;;;;;;;;;;;;5137609;27;28471;-85
2022/05/02 16:40:48;;;;;;;;;;;;;;;;;;5137510;27;28521;-87
2022/05/02 16:43:13;;;;;;;;;;;;;;;;;;5138231;27;27958;-86
2022/05/02 16:45:39;;;;;;;;;;;;;;;;;;5137859;27;28406;-85
2022/05/02 16:48:04;;;;;;;;;;;;;;;;;;5137625;27;28800;-89
2022/05/02 16:50:29;;;;;;;;;;;;;;;;;;5138134;27;28498;-88
2022/05/02 16:52:54;;;;;;;;;;;;;;;;;;5138281;27;28412;-85
2022/05/02 16:55:20;;;;;;;;;;;;;;;;;;5137423;27;28485;-87
2022/05/02 16:57:45;;;;;;;;;;;;;;;;;;5137221;27;28541;-86
2022/05/02 17:00:10;;;;;;;;;;;;;;;;;;5137512;27;28649;-87
2022/05/02 17:02:35;;;;;;;;;;;;;;;;;;5138106;27;28430;-87
2022/05/02 17:05:03;;;;;;;;;;;;;;;;;;5137626;27;28440;-83
2022/05/02 17:07:28;;;;;;;;;;;;;;;;;;5137193;27;28546;-83
2022/05/02 17:09:54;;;;;;;;;;;;;;;;;;5137891;27;28439;-80
2022/05/02 17:12:19;;;;;;;;;;;;;;;;;;5137688;27;28624;-85
2022/05/02 17:14:44;;;;;;;;;;;;;;;;;;5136795;27;28544;-82
2022/05/02 17:17:09;;;;;;;;;;;;;;;;;;5137116;27;28530;-80
2022/05/02 17:19:34;;;;;;;;;;;;;;;;;;5136529;27;28462;-82
2022/05/02 17:21:59;;;;;;;;;;;;;;;;;;5137750;27;28471;-84
2022/05/02 17:24:24;;;;;;;;;;;;;;;;;;5137159;27;28484;-83